sensor_id;sensor_type;location;lat;lon;timestamp;pressure;altitude;pressure_sealevel;temperature;humidity
14790;BME280;7486;51.010;10.366;2023-06-22T00:00:30;98461.34;;;16.61;69.99
14790;BME280;7486;51.010;10.366;2023-06-22T00:03:21;98507.50;;;16.85;70.49
14790;BME280;7486;51.010;10.366;2023-06-22T00:06:07;98345.56;;;15.92;70.53
14790;BME280;7486;51.010;10.366;2023-06-22T00:08:52;98480.56;;;16.74;70.20
14790;BME280;7486;51.010;10.366;2023-06-22T00:11:38;98305.97;;;15.38;71.66
14790;BME280;7486;51.010;10.366;2023-06-22T00:14:23;98557.84;;;16.99;72.08
14790;BME280;7486;51.010;10.366;2023-06-22T00:17:08;98572.44;;;16.92;71.98
14790;BME280;7486;51.010;10.366;2023-06-22T00:19:54;98407.59;;;15.83;71.65
14790;BME280;7486;51.010;10.366;2023-06-22T00:22:40;98445.69;;;16.13;71.45
14790;BME280;7486;51.010;10.366;2023-06-22T00:25:25;98558.72;;;16.77;71.96
14790;BME280;7486;51.010;10.366;2023-06-22T00:28:10;98435.38;;;15.82;72.36
14790;BME280;7486;51.010;10.366;2023-06-22T00:30:56;97911.78;;;12.57;72.06
14790;BME280;7486;51.010;10.366;2023-06-22T00:33:43;98332.66;;;15.26;71.98
14790;BME280;7486;51.010;10.366;2023-06-22T00:36:28;98499.06;;;16.36;71.95
14790;BME280;7486;51.010;10.366;2023-06-22T00:39:14;98367.50;;;15.54;71.61
14790;BME280;7486;51.010;10.366;2023-06-22T00:42:00;98566.75;;;16.77;71.91
14790;BME280;7486;51.010;10.366;2023-06-22T00:44:48;98251.41;;;14.82;71.72
14790;BME280;7486;51.010;10.366;2023-06-22T00:47:35;98477.75;;;16.13;71.97
14790;BME280;7486;51.010;10.366;2023-06-22T00:50:24;98571.97;;;16.71;72.02
14790;BME280;7486;51.010;10.366;2023-06-22T00:53:15;98407.75;;;15.53;72.50
14790;BME280;7486;51.010;10.366;2023-06-22T00:56:01;98446.19;;;15.63;72.38
14790;BME280;7486;51.010;10.366;2023-06-22T00:58:47;98378.81;;;15.15;72.67
14790;BME280;7486;51.010;10.366;2023-06-22T01:01:34;98565.22;;;16.17;73.23
14790;BME280;7486;51.010;10.366;2023-06-22T01:04:21;98458.97;;;15.61;72.78
14790;BME280;7486;51.010;10.366;2023-06-22T01:07:18;98438.63;;;15.60;72.23
14790;BME280;7486;51.010;10.366;2023-06-22T01:13:28;98542.78;;;16.30;72.48
14790;BME280;7486;51.010;10.366;2023-06-22T01:16:26;98491.56;;;15.87;73.09
14790;BME280;7486;51.010;10.366;2023-06-22T01:22:25;98341.69;;;14.90;72.80
14790;BME280;7486;51.010;10.366;2023-06-22T01:25:13;98525.69;;;16.08;73.15
14790;BME280;7486;51.010;10.366;2023-06-22T01:28:16;98386.63;;;15.28;72.46
14790;BME280;7486;51.010;10.366;2023-06-22T01:31:03;98283.97;;;14.72;72.37
14790;BME280;7486;51.010;10.366;2023-06-22T01:33:58;98495.38;;;16.14;72.50
14790;BME280;7486;51.010;10.366;2023-06-22T01:36:44;98489.56;;;16.17;72.48
14790;BME280;7486;51.010;10.366;2023-06-22T01:39:31;98355.91;;;15.37;72.18
14790;BME280;7486;51.010;10.366;2023-06-22T01:42:17;98257.75;;;14.69;72.94
14790;BME280;7486;51.010;10.366;2023-06-22T01:45:03;98322.91;;;14.97;73.13
14790;BME280;7486;51.010;10.366;2023-06-22T01:47:49;98338.94;;;15.20;73.56
14790;BME280;7486;51.010;10.366;2023-06-22T01:50:35;98374.47;;;15.32;73.96
14790;BME280;7486;51.010;10.366;2023-06-22T01:53:21;98469.97;;;15.88;74.07
14790;BME280;7486;51.010;10.366;2023-06-22T01:56:09;98309.69;;;14.90;74.22
14790;BME280;7486;51.010;10.366;2023-06-22T02:02:27;98443.63;;;15.68;75.56
14790;BME280;7486;51.010;10.366;2023-06-22T02:05:16;98484.25;;;15.70;75.53
14790;BME280;7486;51.010;10.366;2023-06-22T02:08:11;98445.25;;;15.46;76.53
14790;BME280;7486;51.010;10.366;2023-06-22T02:10:59;98371.25;;;14.65;78.42
14790;BME280;7486;51.010;10.366;2023-06-22T02:13:47;98397.75;;;14.60;79.82
14790;BME280;7486;51.010;10.366;2023-06-22T02:16:33;98543.94;;;15.23;81.84
14790;BME280;7486;51.010;10.366;2023-06-22T02:19:23;98409.31;;;14.24;83.44
14790;BME280;7486;51.010;10.366;2023-06-22T02:22:10;98352.38;;;13.89;84.16
14790;BME280;7486;51.010;10.366;2023-06-22T02:24:56;98370.31;;;14.12;83.85
14790;BME280;7486;51.010;10.366;2023-06-22T02:27:43;98397.91;;;14.17;82.88
14790;BME280;7486;51.010;10.366;2023-06-22T02:30:29;98496.88;;;14.99;82.59
14790;BME280;7486;51.010;10.366;2023-06-22T02:33:14;98406.06;;;14.52;81.00
14790;BME280;7486;51.010;10.366;2023-06-22T02:36:00;98525.84;;;15.25;80.87
14790;BME280;7486;51.010;10.366;2023-06-22T02:38:46;98476.72;;;15.03;80.17
14790;BME280;7486;51.010;10.366;2023-06-22T02:41:31;98553.31;;;15.44;80.57
14790;BME280;7486;51.010;10.366;2023-06-22T02:44:17;98575.88;;;15.71;80.14
14790;BME280;7486;51.010;10.366;2023-06-22T02:47:03;98362.13;;;14.43;79.79
14790;BME280;7486;51.010;10.366;2023-06-22T02:49:48;98611.53;;;16.00;79.17
14790;BME280;7486;51.010;10.366;2023-06-22T02:52:34;97928.53;;;11.73;78.91
14790;BME280;7486;51.010;10.366;2023-06-22T02:55:19;98523.72;;;15.57;78.91
14790;BME280;7486;51.010;10.366;2023-06-22T02:58:12;98357.38;;;14.45;77.74
14790;BME280;7486;51.010;10.366;2023-06-22T03:00:57;98644.56;;;16.17;78.80
14790;BME280;7486;51.010;10.366;2023-06-22T03:03:43;98653.91;;;16.26;78.27
14790;BME280;7486;51.010;10.366;2023-06-22T03:06:28;98602.03;;;16.04;78.30
14790;BME280;7486;51.010;10.366;2023-06-22T03:09:13;98582.03;;;15.95;77.83
14790;BME280;7486;51.010;10.366;2023-06-22T03:11:59;98555.91;;;15.85;77.85
14790;BME280;7486;51.010;10.366;2023-06-22T03:14:52;98615.88;;;16.24;77.57
14790;BME280;7486;51.010;10.366;2023-06-22T03:17:39;98596.91;;;16.02;78.91
14790;BME280;7486;51.010;10.366;2023-06-22T03:20:26;98657.38;;;16.38;79.90
14790;BME280;7486;51.010;10.366;2023-06-22T03:23:12;98567.06;;;15.94;78.69
14790;BME280;7486;51.010;10.366;2023-06-22T03:25:57;98634.91;;;16.51;78.99
14790;BME280;7486;51.010;10.366;2023-06-22T03:28:42;98601.09;;;16.56;79.17
14790;BME280;7486;51.010;10.366;2023-06-22T03:31:28;98436.88;;;15.31;80.43
14790;BME280;7486;51.010;10.366;2023-06-22T03:34:14;98581.81;;;15.85;82.78
14790;BME280;7486;51.010;10.366;2023-06-22T03:37:00;98437.03;;;14.95;82.93
14790;BME280;7486;51.010;10.366;2023-06-22T03:39:45;98387.16;;;14.84;83.27
14790;BME280;7486;51.010;10.366;2023-06-22T03:42:34;98540.09;;;15.60;84.02
14790;BME280;7486;51.010;10.366;2023-06-22T03:45:20;98504.88;;;15.29;86.17
14790;BME280;7486;51.010;10.366;2023-06-22T03:48:06;98543.00;;;15.70;85.92
14790;BME280;7486;51.010;10.366;2023-06-22T03:50:52;98248.13;;;14.04;84.91
14790;BME280;7486;51.010;10.366;2023-06-22T03:53:37;98462.91;;;15.47;84.55
14790;BME280;7486;51.010;10.366;2023-06-22T03:56:22;98503.16;;;15.46;86.25
14790;BME280;7486;51.010;10.366;2023-06-22T03:59:07;98326.13;;;14.64;85.28
14790;BME280;7486;51.010;10.366;2023-06-22T04:01:52;98535.47;;;15.91;86.40
14790;BME280;7486;51.010;10.366;2023-06-22T04:04:38;98238.53;;;14.14;86.89
14790;BME280;7486;51.010;10.366;2023-06-22T04:07:24;98449.06;;;15.62;86.06
14790;BME280;7486;51.010;10.366;2023-06-22T04:10:09;98490.97;;;16.08;85.05
14790;BME280;7486;51.010;10.366;2023-06-22T04:13:10;98493.84;;;16.06;84.46
14790;BME280;7486;51.010;10.366;2023-06-22T04:15:56;98447.09;;;15.81;84.04
14790;BME280;7486;51.010;10.366;2023-06-22T04:18:41;98321.78;;;15.16;83.79
14790;BME280;7486;51.010;10.366;2023-06-22T04:21:27;98513.34;;;16.42;84.10
14790;BME280;7486;51.010;10.366;2023-06-22T04:24:12;98474.25;;;16.01;85.79
14790;BME280;7486;51.010;10.366;2023-06-22T04:26:58;98528.34;;;16.43;86.22
14790;BME280;7486;51.010;10.366;2023-06-22T04:29:44;98320.38;;;15.13;86.21
14790;BME280;7486;51.010;10.366;2023-06-22T04:32:29;98449.41;;;16.12;85.82
14790;BME280;7486;51.010;10.366;2023-06-22T04:35:14;98328.75;;;15.40;85.61
14790;BME280;7486;51.010;10.366;2023-06-22T04:38:00;98229.25;;;14.82;85.78
14790;BME280;7486;51.010;10.366;2023-06-22T04:40:45;98495.53;;;16.47;85.41
14790;BME280;7486;51.010;10.366;2023-06-22T04:43:30;98401.22;;;15.72;86.02
14790;BME280;7486;51.010;10.366;2023-06-22T04:46:16;98467.72;;;16.20;86.69
14790;BME280;7486;51.010;10.366;2023-06-22T04:49:01;98360.84;;;15.68;87.08
14790;BME280;7486;51.010;10.366;2023-06-22T04:51:47;98456.97;;;16.43;85.88
14790;BME280;7486;51.010;10.366;2023-06-22T04:54:34;98506.38;;;16.81;86.84
14790;BME280;7486;51.010;10.366;2023-06-22T04:57:21;98505.06;;;16.83;86.24
14790;BME280;7486;51.010;10.366;2023-06-22T05:00:07;98443.34;;;16.45;85.99
14790;BME280;7486;51.010;10.366;2023-06-22T05:02:52;98379.22;;;15.93;86.10
14790;BME280;7486;51.010;10.366;2023-06-22T05:05:48;98525.97;;;16.98;85.56
14790;BME280;7486;51.010;10.366;2023-06-22T05:08:33;98374.56;;;16.00;85.20
14790;BME280;7486;51.010;10.366;2023-06-22T05:11:19;98459.59;;;16.27;86.73
14790;BME280;7486;51.010;10.366;2023-06-22T05:14:04;98479.97;;;16.44;87.60
14790;BME280;7486;51.010;10.366;2023-06-22T05:16:50;98332.19;;;15.52;88.06
14790;BME280;7486;51.010;10.366;2023-06-22T05:19:35;98376.22;;;16.13;87.11
14790;BME280;7486;51.010;10.366;2023-06-22T05:22:21;98463.13;;;16.44;88.48
14790;BME280;7486;51.010;10.366;2023-06-22T05:25:09;98513.91;;;16.84;87.92
14790;BME280;7486;51.010;10.366;2023-06-22T05:27:55;98505.06;;;16.95;88.70
14790;BME280;7486;51.010;10.366;2023-06-22T05:30:43;98466.25;;;17.09;87.62
14790;BME280;7486;51.010;10.366;2023-06-22T05:33:29;98435.72;;;17.10;85.28
14790;BME280;7486;51.010;10.366;2023-06-22T05:36:14;98326.03;;;16.32;86.50
14790;BME280;7486;51.010;10.366;2023-06-22T05:39:11;98489.75;;;17.40;88.26
14790;BME280;7486;51.010;10.366;2023-06-22T05:41:56;98502.25;;;17.35;88.02
14790;BME280;7486;51.010;10.366;2023-06-22T05:44:41;98290.00;;;16.06;87.96
14790;BME280;7486;51.010;10.366;2023-06-22T05:47:27;98039.53;;;14.61;87.42
14790;BME280;7486;51.010;10.366;2023-06-22T05:50:12;98367.41;;;16.74;88.27
14790;BME280;7486;51.010;10.366;2023-06-22T05:52:58;98495.09;;;17.57;87.96
14790;BME280;7486;51.010;10.366;2023-06-22T05:55:43;98232.22;;;16.16;88.15
14790;BME280;7486;51.010;10.366;2023-06-22T05:58:28;98510.44;;;17.95;86.86
14790;BME280;7486;51.010;10.366;2023-06-22T06:01:14;98403.59;;;17.27;87.17
14790;BME280;7486;51.010;10.366;2023-06-22T06:04:00;98444.88;;;17.47;87.44
14790;BME280;7486;51.010;10.366;2023-06-22T06:06:46;98500.16;;;17.87;86.33
14790;BME280;7486;51.010;10.366;2023-06-22T06:09:31;98325.75;;;16.78;86.89
14790;BME280;7486;51.010;10.366;2023-06-22T06:12:17;98444.31;;;17.45;87.33
14790;BME280;7486;51.010;10.366;2023-06-22T06:15:03;98520.75;;;18.03;87.52
14790;BME280;7486;51.010;10.366;2023-06-22T06:17:51;98323.97;;;16.84;86.08
14790;BME280;7486;51.010;10.366;2023-06-22T06:20:37;98412.66;;;17.76;84.41
14790;BME280;7486;51.010;10.366;2023-06-22T06:23:23;98326.38;;;17.35;83.55
14790;BME280;7486;51.010;10.366;2023-06-22T06:26:08;97983.34;;;15.24;85.09
14790;BME280;7486;51.010;10.366;2023-06-22T06:28:56;98504.72;;;18.46;86.27
14790;BME280;7486;51.010;10.366;2023-06-22T06:31:42;98384.75;;;18.15;83.86
14790;BME280;7486;51.010;10.366;2023-06-22T06:34:27;98426.28;;;18.61;84.39
14790;BME280;7486;51.010;10.366;2023-06-22T06:37:12;98466.38;;;18.99;83.60
14790;BME280;7486;51.010;10.366;2023-06-22T06:39:58;98371.91;;;18.70;80.43
14790;BME280;7486;51.010;10.366;2023-06-22T06:42:45;98511.00;;;19.64;83.90
14790;BME280;7486;51.010;10.366;2023-06-22T06:45:31;98451.66;;;19.65;80.94
14790;BME280;7486;51.010;10.366;2023-06-22T06:48:16;98399.00;;;19.74;78.08
14790;BME280;7486;51.010;10.366;2023-06-22T06:51:01;98437.16;;;20.18;78.20
14790;BME280;7486;51.010;10.366;2023-06-22T06:53:47;98262.34;;;19.36;76.89
14790;BME280;7486;51.010;10.366;2023-06-22T06:56:32;98493.16;;;21.09;75.92
14790;BME280;7486;51.010;10.366;2023-06-22T06:59:18;98355.25;;;20.51;75.20
14790;BME280;7486;51.010;10.366;2023-06-22T07:02:04;98468.41;;;21.47;74.30
14790;BME280;7486;51.010;10.366;2023-06-22T07:04:50;98362.00;;;20.99;73.41
14790;BME280;7486;51.010;10.366;2023-06-22T07:07:35;98482.34;;;22.05;67.80
14790;BME280;7486;51.010;10.366;2023-06-22T07:10:23;98207.72;;;20.38;70.51
14790;BME280;7486;51.010;10.366;2023-06-22T07:13:08;98295.44;;;21.20;67.36
14790;BME280;7486;51.010;10.366;2023-06-22T07:15:53;98356.81;;;21.53;67.85
14790;BME280;7486;51.010;10.366;2023-06-22T07:18:40;98463.69;;;22.18;66.76
14790;BME280;7486;51.010;10.366;2023-06-22T07:21:25;98310.00;;;21.19;70.20
14790;BME280;7486;51.010;10.366;2023-06-22T07:24:11;98237.88;;;20.55;66.80
14790;BME280;7486;51.010;10.366;2023-06-22T07:26:56;98332.06;;;21.16;67.52
14790;BME280;7486;51.010;10.366;2023-06-22T07:29:42;98469.31;;;22.27;66.85
14790;BME280;7486;51.010;10.366;2023-06-22T07:32:27;98288.44;;;21.24;66.02
14790;BME280;7486;51.010;10.366;2023-06-22T07:35:13;98441.28;;;22.13;68.45
14790;BME280;7486;51.010;10.366;2023-06-22T07:37:59;98287.91;;;21.17;65.13
14790;BME280;7486;51.010;10.366;2023-06-22T07:40:50;98432.84;;;22.30;66.15
14790;BME280;7486;51.010;10.366;2023-06-22T07:43:35;98399.09;;;22.37;66.82
14790;BME280;7486;51.010;10.366;2023-06-22T07:46:20;98373.28;;;22.21;63.59
14790;BME280;7486;51.010;10.366;2023-06-22T07:49:06;98449.41;;;22.72;66.85
14790;BME280;7486;51.010;10.366;2023-06-22T07:51:51;98426.63;;;22.39;64.44
14790;BME280;7486;51.010;10.366;2023-06-22T07:54:37;98359.72;;;21.67;64.98
14790;BME280;7486;51.010;10.366;2023-06-22T07:57:23;98431.09;;;22.00;64.78
14790;BME280;7486;51.010;10.366;2023-06-22T08:00:10;98273.06;;;21.14;65.54
14790;BME280;7486;51.010;10.366;2023-06-22T08:02:56;98391.41;;;22.15;65.98
14790;BME280;7486;51.010;10.366;2023-06-22T08:05:41;98434.97;;;22.48;64.30
14790;BME280;7486;51.010;10.366;2023-06-22T08:08:27;98438.16;;;22.55;62.58
14790;BME280;7486;51.010;10.366;2023-06-22T08:11:12;98399.88;;;22.48;63.37
14790;BME280;7486;51.010;10.366;2023-06-22T08:13:58;98324.06;;;21.90;64.11
14790;BME280;7486;51.010;10.366;2023-06-22T08:16:43;98425.69;;;23.08;62.54
14790;BME280;7486;51.010;10.366;2023-06-22T08:19:29;98277.69;;;22.32;63.71
14790;BME280;7486;51.010;10.366;2023-06-22T08:22:16;98427.03;;;23.39;62.45
14790;BME280;7486;51.010;10.366;2023-06-22T08:25:01;98220.81;;;22.23;61.06
14790;BME280;7486;51.010;10.366;2023-06-22T08:27:47;98424.75;;;23.51;61.38
14790;BME280;7486;51.010;10.366;2023-06-22T08:30:34;98347.34;;;23.03;61.11
14790;BME280;7486;51.010;10.366;2023-06-22T08:33:19;98434.97;;;23.59;61.17
14790;BME280;7486;51.010;10.366;2023-06-22T08:36:12;98273.81;;;22.43;61.94
14790;BME280;7486;51.010;10.366;2023-06-22T08:38:58;98219.47;;;22.26;61.11
14790;BME280;7486;51.010;10.366;2023-06-22T08:41:44;98434.34;;;23.39;59.69
14790;BME280;7486;51.010;10.366;2023-06-22T08:44:29;98303.91;;;22.70;61.55
14790;BME280;7486;51.010;10.366;2023-06-22T08:47:15;98393.78;;;23.67;61.09
14790;BME280;7486;51.010;10.366;2023-06-22T08:50:00;98403.47;;;23.74;58.03
14790;BME280;7486;51.010;10.366;2023-06-22T08:52:46;98311.41;;;23.07;59.15
14790;BME280;7486;51.010;10.366;2023-06-22T08:55:33;98180.31;;;22.29;58.16
14790;BME280;7486;51.010;10.366;2023-06-22T08:58:19;98237.03;;;22.57;58.56
14790;BME280;7486;51.010;10.366;2023-06-22T09:01:04;98170.44;;;22.19;58.77
14790;BME280;7486;51.010;10.366;2023-06-22T09:03:50;98244.34;;;22.57;59.89
14790;BME280;7486;51.010;10.366;2023-06-22T09:06:36;98272.28;;;23.00;62.09
14790;BME280;7486;51.010;10.366;2023-06-22T09:09:21;98360.53;;;23.91;58.66
14790;BME280;7486;51.010;10.366;2023-06-22T09:12:07;98381.03;;;23.97;59.05
14790;BME280;7486;51.010;10.366;2023-06-22T09:14:53;98168.13;;;22.89;57.33
14790;BME280;7486;51.010;10.366;2023-06-22T09:17:40;98182.63;;;22.98;56.50
14790;BME280;7486;51.010;10.366;2023-06-22T09:20:26;98379.19;;;24.53;56.08
14790;BME280;7486;51.010;10.366;2023-06-22T09:23:12;98257.50;;;24.06;57.28
14790;BME280;7486;51.010;10.366;2023-06-22T09:25:57;98353.31;;;24.47;56.27
14790;BME280;7486;51.010;10.366;2023-06-22T09:28:43;98364.34;;;24.32;56.53
14790;BME280;7486;51.010;10.366;2023-06-22T09:31:29;98355.28;;;24.18;57.22
14790;BME280;7486;51.010;10.366;2023-06-22T09:34:14;98196.13;;;23.45;56.81
14790;BME280;7486;51.010;10.366;2023-06-22T09:37:00;98224.56;;;23.61;56.19
14790;BME280;7486;51.010;10.366;2023-06-22T09:39:45;98265.25;;;24.12;59.52
14790;BME280;7486;51.010;10.366;2023-06-22T09:42:31;98278.19;;;24.53;55.75
14790;BME280;7486;51.010;10.366;2023-06-22T09:45:16;98144.72;;;23.69;54.94
14790;BME280;7486;51.010;10.366;2023-06-22T09:48:01;98319.56;;;24.58;55.78
14790;BME280;7486;51.010;10.366;2023-06-22T09:50:47;98280.34;;;24.37;58.04
14790;BME280;7486;51.010;10.366;2023-06-22T09:53:37;98046.09;;;22.87;56.56
14790;BME280;7486;51.010;10.366;2023-06-22T09:56:24;97983.75;;;22.64;54.86
14790;BME280;7486;51.010;10.366;2023-06-22T09:59:12;98267.72;;;24.65;55.62
14790;BME280;7486;51.010;10.366;2023-06-22T10:02:03;98021.94;;;22.95;56.41
14790;BME280;7486;51.010;10.366;2023-06-22T10:04:49;98283.06;;;24.69;56.53
14790;BME280;7486;51.010;10.366;2023-06-22T10:07:34;98276.59;;;24.52;56.70
14790;BME280;7486;51.010;10.366;2023-06-22T10:10:20;98109.97;;;23.20;56.48
14790;BME280;7486;51.010;10.366;2023-06-22T10:13:09;98131.00;;;23.98;59.10
14790;BME280;7486;51.010;10.366;2023-06-22T10:15:55;98321.59;;;25.58;55.45
14790;BME280;7486;51.010;10.366;2023-06-22T10:18:40;98351.97;;;25.60;55.39
14790;BME280;7486;51.010;10.366;2023-06-22T10:21:26;98299.66;;;25.14;56.07
14790;BME280;7486;51.010;10.366;2023-06-22T10:24:43;98354.56;;;25.52;54.95
14790;BME280;7486;51.010;10.366;2023-06-22T10:27:34;98320.56;;;25.27;54.78
14790;BME280;7486;51.010;10.366;2023-06-22T10:30:19;98303.56;;;25.08;56.22
14790;BME280;7486;51.010;10.366;2023-06-22T10:33:05;98305.69;;;25.11;56.15
14790;BME280;7486;51.010;10.366;2023-06-22T10:35:50;98241.84;;;25.05;54.88
14790;BME280;7486;51.010;10.366;2023-06-22T10:38:35;98313.19;;;25.46;54.63
14790;BME280;7486;51.010;10.366;2023-06-22T10:41:21;98172.25;;;24.87;55.05
14790;BME280;7486;51.010;10.366;2023-06-22T10:44:06;98264.75;;;25.67;54.40
14790;BME280;7486;51.010;10.366;2023-06-22T10:46:51;98324.41;;;26.08;52.75
14790;BME280;7486;51.010;10.366;2023-06-22T10:49:38;98239.31;;;25.08;54.72
14790;BME280;7486;51.010;10.366;2023-06-22T10:52:23;98259.91;;;24.96;56.25
14790;BME280;7486;51.010;10.366;2023-06-22T10:55:10;98319.22;;;25.43;56.91
14790;BME280;7486;51.010;10.366;2023-06-22T10:57:55;98286.06;;;25.00;56.48
14790;BME280;7486;51.010;10.366;2023-06-22T11:00:41;98069.66;;;23.80;55.71
14790;BME280;7486;51.010;10.366;2023-06-22T11:03:26;98214.25;;;24.70;56.55
14790;BME280;7486;51.010;10.366;2023-06-22T11:06:12;97878.22;;;22.80;55.75
14790;BME280;7486;51.010;10.366;2023-06-22T11:08:58;98271.97;;;25.31;53.74
14790;BME280;7486;51.010;10.366;2023-06-22T11:11:51;98264.75;;;25.67;56.38
14790;BME280;7486;51.010;10.366;2023-06-22T11:14:38;98285.22;;;26.00;55.17
14790;BME280;7486;51.010;10.366;2023-06-22T11:17:26;98174.28;;;25.22;54.12
14790;BME280;7486;51.010;10.366;2023-06-22T11:20:12;98191.63;;;24.94;53.68
14790;BME280;7486;51.010;10.366;2023-06-22T11:22:58;98288.44;;;25.89;52.96
14790;BME280;7486;51.010;10.366;2023-06-22T11:25:43;98293.38;;;25.73;54.71
14790;BME280;7486;51.010;10.366;2023-06-22T11:28:28;98266.53;;;25.85;55.29
14790;BME280;7486;51.010;10.366;2023-06-22T11:31:14;98185.72;;;25.46;53.49
14790;BME280;7486;51.010;10.366;2023-06-22T11:34:11;98232.56;;;25.88;53.80
14790;BME280;7486;51.010;10.366;2023-06-22T11:36:56;97860.13;;;23.31;52.76
14790;BME280;7486;51.010;10.366;2023-06-22T11:39:42;98242.03;;;25.63;52.68
14790;BME280;7486;51.010;10.366;2023-06-22T11:42:37;98143.63;;;25.49;54.85
14790;BME280;7486;51.010;10.366;2023-06-22T11:45:23;98140.63;;;25.37;51.03
14790;BME280;7486;51.010;10.366;2023-06-22T11:48:08;98237.56;;;26.08;53.45
14790;BME280;7486;51.010;10.366;2023-06-22T11:50:54;98205.66;;;26.36;53.07
14790;BME280;7486;51.010;10.366;2023-06-22T11:53:43;98141.59;;;25.90;50.13
14790;BME280;7486;51.010;10.366;2023-06-22T11:56:28;98175.97;;;26.17;49.25
14790;BME280;7486;51.010;10.366;2023-06-22T11:59:13;97990.41;;;25.02;51.88
14790;BME280;7486;51.010;10.366;2023-06-22T12:01:59;98081.47;;;25.75;51.72
14790;BME280;7486;51.010;10.366;2023-06-22T12:04:45;98185.16;;;26.74;50.03
14790;BME280;7486;51.010;10.366;2023-06-22T12:07:30;98162.53;;;26.56;49.95
14790;BME280;7486;51.010;10.366;2023-06-22T12:10:16;98135.78;;;26.50;50.53
14790;BME280;7486;51.010;10.366;2023-06-22T12:13:01;98079.53;;;26.50;48.04
14790;BME280;7486;51.010;10.366;2023-06-22T12:15:47;98005.75;;;25.42;50.12
14790;BME280;7486;51.010;10.366;2023-06-22T12:18:33;98086.91;;;26.28;48.82
14790;BME280;7486;51.010;10.366;2023-06-22T12:21:18;98164.16;;;26.66;49.46
14790;BME280;7486;51.010;10.366;2023-06-22T12:24:04;98136.66;;;26.37;51.35
14790;BME280;7486;51.010;10.366;2023-06-22T12:26:50;98157.31;;;26.46;49.22
14790;BME280;7486;51.010;10.366;2023-06-22T12:29:37;98185.72;;;26.62;50.11
14790;BME280;7486;51.010;10.366;2023-06-22T12:32:23;97766.09;;;24.10;49.10
14790;BME280;7486;51.010;10.366;2023-06-22T12:35:09;97713.63;;;23.97;50.11
14790;BME280;7486;51.010;10.366;2023-06-22T12:37:54;97435.09;;;22.18;50.07
14790;BME280;7486;51.010;10.366;2023-06-22T12:40:40;97788.50;;;24.24;49.21
14790;BME280;7486;51.010;10.366;2023-06-22T12:43:26;98032.03;;;25.78;49.38
14790;BME280;7486;51.010;10.366;2023-06-22T12:46:11;98070.34;;;26.38;49.60
14790;BME280;7486;51.010;10.366;2023-06-22T12:48:57;97816.72;;;25.34;49.43
14790;BME280;7486;51.010;10.366;2023-06-22T12:51:43;98123.00;;;27.55;48.87
14790;BME280;7486;51.010;10.366;2023-06-22T12:54:29;97662.19;;;24.33;47.69
14790;BME280;7486;51.010;10.366;2023-06-22T12:57:19;98096.28;;;26.75;48.98
14790;BME280;7486;51.010;10.366;2023-06-22T13:00:05;97638.91;;;23.88;48.01
14790;BME280;7486;51.010;10.366;2023-06-22T13:02:50;97794.22;;;24.81;48.28
14790;BME280;7486;51.010;10.366;2023-06-22T13:05:39;98146.38;;;26.91;48.31
14790;BME280;7486;51.010;10.366;2023-06-22T13:08:24;97873.09;;;25.24;48.25
14790;BME280;7486;51.010;10.366;2023-06-22T13:11:29;98095.66;;;26.47;48.01
14790;BME280;7486;51.010;10.366;2023-06-22T13:14:15;98104.53;;;26.61;48.97
14790;BME280;7486;51.010;10.366;2023-06-22T13:17:00;97919.19;;;25.77;48.52
14790;BME280;7486;51.010;10.366;2023-06-22T13:19:46;97941.88;;;25.89;47.92
14790;BME280;7486;51.010;10.366;2023-06-22T13:22:33;98033.03;;;26.43;47.65
14790;BME280;7486;51.010;10.366;2023-06-22T13:25:19;98116.63;;;26.55;48.48
14790;BME280;7486;51.010;10.366;2023-06-22T13:28:08;97938.06;;;25.15;49.56
14790;BME280;7486;51.010;10.366;2023-06-22T13:31:08;97917.94;;;25.30;51.92
14790;BME280;7486;51.010;10.366;2023-06-22T13:33:56;97943.31;;;25.87;51.46
14790;BME280;7486;51.010;10.366;2023-06-22T13:36:42;98028.44;;;26.13;50.61
14790;BME280;7486;51.010;10.366;2023-06-22T13:39:27;97958.53;;;25.65;50.95
14790;BME280;7486;51.010;10.366;2023-06-22T13:42:12;97994.44;;;26.24;49.78
14790;BME280;7486;51.010;10.366;2023-06-22T13:44:58;97933.84;;;25.76;49.52
14790;BME280;7486;51.010;10.366;2023-06-22T13:47:44;97911.59;;;25.56;51.01
14790;BME280;7486;51.010;10.366;2023-06-22T13:50:29;97933.00;;;25.66;49.95
14790;BME280;7486;51.010;10.366;2023-06-22T13:53:16;97783.75;;;24.65;51.25
14790;BME280;7486;51.010;10.366;2023-06-22T13:56:01;97966.41;;;25.98;51.47
14790;BME280;7486;51.010;10.366;2023-06-22T13:58:47;97913.00;;;25.54;50.01
14790;BME280;7486;51.010;10.366;2023-06-22T14:01:33;98023.56;;;26.01;49.92
14790;BME280;7486;51.010;10.366;2023-06-22T14:04:18;97784.78;;;24.56;50.83
14790;BME280;7486;51.010;10.366;2023-06-22T14:07:04;97480.78;;;22.91;50.32
14790;BME280;7486;51.010;10.366;2023-06-22T14:09:50;98002.81;;;26.45;49.55
14790;BME280;7486;51.010;10.366;2023-06-22T14:12:35;98000.38;;;26.26;49.01
14790;BME280;7486;51.010;10.366;2023-06-22T14:15:21;97650.09;;;23.73;50.52
14790;BME280;7486;51.010;10.366;2023-06-22T14:18:06;97552.75;;;23.37;49.78
14790;BME280;7486;51.010;10.366;2023-06-22T14:20:52;97906.00;;;25.92;51.24
14790;BME280;7486;51.010;10.366;2023-06-22T14:23:38;97972.13;;;26.44;50.39
14790;BME280;7486;51.010;10.366;2023-06-22T14:26:24;97936.28;;;26.73;49.24
14790;BME280;7486;51.010;10.366;2023-06-22T14:29:09;97810.41;;;25.95;48.46
14790;BME280;7486;51.010;10.366;2023-06-22T14:31:55;97358.25;;;23.23;48.69
14790;BME280;7486;51.010;10.366;2023-06-22T14:34:40;97704.00;;;25.42;49.10
14790;BME280;7486;51.010;10.366;2023-06-22T14:37:25;97839.31;;;26.00;50.18
14790;BME280;7486;51.010;10.366;2023-06-22T14:40:11;97573.72;;;24.20;49.00
14790;BME280;7486;51.010;10.366;2023-06-22T14:42:57;97922.50;;;26.52;49.37
14790;BME280;7486;51.010;10.366;2023-06-22T14:45:42;97921.31;;;26.28;50.49
14790;BME280;7486;51.010;10.366;2023-06-22T14:48:27;97741.75;;;25.38;50.74
14790;BME280;7486;51.010;10.366;2023-06-22T14:51:14;97680.59;;;25.06;50.98